Arden Hills, Minnesota
Current Conditions -  °F | °C
As of 2:21 AM on Sunday 23 Nov 2014 (Local Time) from KANE Reporting Station
Overcast Overcast  
Wind Chill: 39°   Ceiling: 2300
Heat Index: 45°   Visibility: 2.5mi
Dew Point: 45°   Wind: 10mph
Humidity: 100%   Direction: 150°SSE
Pressure: 29.44"   Gusts: NA
Location:  45.0848°N, 93.136°W
Report Text: KANE 230821Z AUTO 15009KT 2 1/2SM SCT016 OVC023 07/07 A2944 RMK AO2
Loading
Personal Weather Stations






























Interactive Weather Map New forecast layout! Learn more

10-Day Weather Forecast

Advertisements
Track Severe Weather on mobile